Time;durP1;ratioP1;P1;durP2;ratioP2;P2;SDS_P1;SDS_P2;PMS_P1;PMS_P2;Temp;Humidity;BMP_temperature;BMP_pressure;BME280_temperature;BME280_humidity;BME280_pressure;Samples;Min_cycle;Max_cycle;Signal;HPM_P1;HPM_P2
2023/03/30 00:01:56;;;;;;;4.45;3.00;;;;;;;;;;4249949;28;20049;-58
2023/03/30 00:04:17;;;;;;;6.28;3.53;;;;;;;;;;4253803;28;20084;-57
2023/03/30 00:06:38;;;;;;;5.97;2.78;;;;;;;;;;4244296;28;20051;-57
2023/03/30 00:08:58;;;;;;;3.50;3.28;;;;;;;;;;4246575;28;20051;-57
2023/03/30 00:11:22;;;;;;;3.85;3.65;;;;;;;;;;4249630;28;20046;-57
2023/03/30 00:13:42;;;;;;;4.57;2.97;;;;;;;;;;4248319;28;20081;-57
2023/03/30 00:16:03;;;;;;;3.97;3.67;;;;;;;;;;4247665;28;20077;-57
2023/03/30 00:18:25;;;;;;;8.07;3.90;;;;;;;;;;4247386;28;20042;-57
2023/03/30 00:20:48;;;;;;;4.97;4.68;;;;;;;;;;4247846;28;20051;-57
2023/03/30 00:23:08;;;;;;;6.45;4.05;;;;;;;;;;4246310;28;20085;-57
2023/03/30 00:25:28;;;;;;;4.68;3.38;;;;;;;;;;4247016;28;20330;-57
2023/03/30 00:27:48;;;;;;;3.42;3.13;;;;;;;;;;4245854;28;20054;-57
2023/03/30 00:30:18;;;;;;;6.63;3.88;;;;;;;;;;4247855;28;20073;-58
2023/03/30 00:32:39;;;;;;;4.32;3.92;;;;;;;;;;4249152;28;20107;-57
2023/03/30 00:35:00;;;;;;;5.85;4.82;;;;;;;;;;4250665;28;20043;-57
2023/03/30 00:37:20;;;;;;;7.22;4.03;;;;;;;;;;4244796;28;20050;-57
2023/03/30 00:39:40;;;;;;;5.20;3.78;;;;;;;;;;4252219;28;20038;-57
2023/03/30 00:42:01;;;;;;;4.07;3.78;;;;;;;;;;4248382;28;20404;-57
2023/03/30 00:44:40;;;;;;;7.43;4.10;;;;;;;;;;4243210;28;20039;-57
2023/03/30 00:47:00;;;;;;;5.60;4.25;;;;;;;;;;4242592;28;20073;-58
2023/03/30 00:49:20;;;;;;;6.65;4.93;;;;;;;;;;4245886;28;20111;-57
2023/03/30 00:51:42;;;;;;;4.80;4.25;;;;;;;;;;4248017;28;20080;-57
2023/03/30 00:54:06;;;;;;;8.07;4.03;;;;;;;;;;4245494;28;20075;-57
2023/03/30 00:56:28;;;;;;;9.30;4.32;;;;;;;;;;4243089;28;20050;-57
2023/03/30 00:58:49;;;;;;;4.45;4.15;;;;;;;;;;4233191;28;20093;-57
2023/03/30 01:01:10;;;;;;;5.22;4.15;;;;;;;;;;4246803;28;20084;-62
2023/03/30 01:03:32;;;;;;;6.97;4.38;;;;;;;;;;4247670;28;20051;-62
2023/03/30 01:05:54;;;;;;;4.18;3.65;;;;;;;;;;4245929;28;20083;-62
2023/03/30 01:08:15;;;;;;;6.22;3.92;;;;;;;;;;4243388;28;20046;-62
2023/03/30 01:10:35;;;;;;;10.43;4.00;;;;;;;;;;4248226;28;20058;-62
2023/03/30 01:12:56;;;;;;;5.20;4.72;;;;;;;;;;4248176;28;20106;-62
2023/03/30 01:15:16;;;;;;;5.03;4.70;;;;;;;;;;4245185;28;20046;-61
2023/03/30 01:17:48;;;;;;;12.18;6.38;;;;;;;;;;4246888;28;20066;-62
2023/03/30 01:20:12;;;;;;;4.85;3.55;;;;;;;;;;4248192;28;20261;-62
2023/03/30 01:22:52;;;;;;;5.35;4.88;;;;;;;;;;4247925;28;20084;-62
2023/03/30 01:25:32;;;;;;;6.53;4.03;;;;;;;;;;4245364;28;20049;-62
2023/03/30 01:28:04;;;;;;;4.95;4.65;;;;;;;;;;4245856;28;20388;-62
2023/03/30 01:30:39;;;;;;;5.00;4.75;;;;;;;;;;4250893;28;20108;-61
2023/03/30 01:33:03;;;;;;;4.97;4.57;;;;;;;;;;4252300;28;20050;-62
2023/03/30 01:35:23;;;;;;;;;;;;;;;;;;4245684;28;20053;-61
2023/03/30 01:37:55;;;;;;;5.43;4.10;;;;;;;;;;4244749;28;19967;-62
2023/03/30 01:40:31;;;;;;;5.50;5.15;;;;;;;;;;4244684;28;20271;-62
2023/03/30 01:43:14;;;;;;;7.15;4.63;;;;;;;;;;4243059;28;20227;-62
2023/03/30 01:45:43;;;;;;;5.38;5.03;;;;;;;;;;4247476;28;20062;-62
2023/03/30 01:48:08;;;;;;;3.90;3.50;;;;;;;;;;4241859;28;20066;-62
2023/03/30 01:50:37;;;;;;;7.22;5.43;;;;;;;;;;4246248;28;20062;-62
2023/03/30 01:52:57;;;;;;;6.25;5.85;;;;;;;;;;4244791;28;20384;-62
2023/03/30 01:55:19;;;;;;;6.05;5.40;;;;;;;;;;4247156;28;20088;-62
2023/03/30 01:57:45;;;;;;;7.43;4.13;;;;;;;;;;4240900;28;20046;-62
2023/03/30 02:00:14;;;;;;;4.75;4.07;;;;;;;;;;4246254;28;20054;-62
2023/03/30 02:02:35;;;;;;;5.53;5.00;;;;;;;;;;4243221;28;20051;-62
2023/03/30 02:04:59;;;;;;;5.15;4.57;;;;;;;;;;4248179;28;20107;-62
2023/03/30 02:07:22;;;;;;;7.15;4.22;;;;;;;;;;4244047;28;20046;-62
2023/03/30 02:09:45;;;;;;;9.27;5.18;;;;;;;;;;4244797;28;20043;-61
2023/03/30 02:12:06;;;;;;;4.55;4.25;;;;;;;;;;4242789;28;20084;-62
2023/03/30 02:14:29;;;;;;;4.20;3.95;;;;;;;;;;4246424;28;20379;-62
2023/03/30 02:16:51;;;;;;;3.88;3.45;;;;;;;;;;4239523;28;20177;-62
2023/03/30 02:19:11;;;;;;;5.20;4.70;;;;;;;;;;4245331;28;20246;-62
2023/03/30 02:21:32;;;;;;;4.43;4.03;;;;;;;;;;4239397;28;20076;-62
2023/03/30 02:23:53;;;;;;;5.20;4.82;;;;;;;;;;4246043;28;20065;-62
2023/03/30 02:26:14;;;;;;;4.53;4.20;;;;;;;;;;4246875;28;20101;-61
2023/03/30 02:28:34;;;;;;;4.97;4.40;;;;;;;;;;4248007;28;20111;-62
2023/03/30 02:30:54;;;;;;;5.55;5.10;;;;;;;;;;4244720;28;20395;-62
2023/03/30 02:33:38;;;;;;;5.13;4.55;;;;;;;;;;4245076;28;20103;-62
2023/03/30 02:36:16;;;;;;;5.65;5.38;;;;;;;;;;4227181;27;20084;-62
2023/03/30 02:38:39;;;;;;;4.78;4.38;;;;;;;;;;4244083;28;20054;-62
2023/03/30 02:41:00;;;;;;;5.60;4.03;;;;;;;;;;4245361;28;20046;-62
2023/03/30 02:43:23;;;;;;;8.10;3.50;;;;;;;;;;4248370;28;20305;-62
2023/03/30 02:45:52;;;;;;;7.78;3.67;;;;;;;;;;4248132;28;20042;-62
2023/03/30 02:48:25;;;;;;;4.85;3.30;;;;;;;;;;4241033;28;20242;-62
2023/03/30 02:51:08;;;;;;;6.97;4.63;;;;;;;;;;4244105;28;20050;-62
2023/03/30 02:53:28;;;;;;;;;;;;;;;;;;4247512;28;20374;-62
2023/03/30 02:55:55;;;;;;;5.40;4.75;;;;;;;;;;4249195;28;19922;-62
2023/03/30 02:58:19;;;;;;;5.05;4.68;;;;;;;;;;4240481;28;20089;-62
2023/03/30 03:00:53;;;;;;;4.47;4.18;;;;;;;;;;4244329;28;20404;-62
2023/03/30 03:03:16;;;;;;;7.30;3.40;;;;;;;;;;4246958;28;20054;-62
2023/03/30 03:05:37;;;;;;;6.22;5.65;;;;;;;;;;4248378;28;20314;-62
2023/03/30 03:07:57;;;;;;;5.55;3.92;;;;;;;;;;4244441;28;20082;-62
2023/03/30 03:10:17;;;;;;;7.68;4.45;;;;;;;;;;4247769;28;20054;-62
2023/03/30 03:12:38;;;;;;;8.05;5.82;;;;;;;;;;4243644;28;20070;-62
2023/03/30 03:15:00;;;;;;;11.32;5.82;;;;;;;;;;4248872;28;20074;-62
2023/03/30 03:17:21;;;;;;;10.47;6.43;;;;;;;;;;4244808;28;20098;-62
2023/03/30 03:19:41;;;;;;;5.20;4.80;;;;;;;;;;4244600;28;20053;-62
2023/03/30 03:22:01;;;;;;;6.25;3.97;;;;;;;;;;4244105;28;20051;-62
2023/03/30 03:24:22;;;;;;;8.10;5.88;;;;;;;;;;4246908;28;20058;-62
2023/03/30 03:26:42;;;;;;;4.72;4.28;;;;;;;;;;4246671;28;20078;-62
2023/03/30 03:29:03;;;;;;;8.18;4.55;;;;;;;;;;4244638;28;20092;-62
2023/03/30 03:31:23;;;;;;;8.85;5.32;;;;;;;;;;4245358;28;20353;-62
2023/03/30 03:33:43;;;;;;;11.18;6.38;;;;;;;;;;4249096;28;20114;-62
2023/03/30 03:36:04;;;;;;;7.50;5.78;;;;;;;;;;4247034;27;20100;-62
2023/03/30 03:38:25;;;;;;;8.35;4.72;;;;;;;;;;4246780;28;20239;-62
2023/03/30 03:40:49;;;;;;;4.45;3.72;;;;;;;;;;4247114;28;20080;-62
2023/03/30 03:43:09;;;;;;;5.50;4.53;;;;;;;;;;4244568;28;20098;-62
2023/03/30 03:45:29;;;;;;;5.05;4.78;;;;;;;;;;4245296;28;20111;-62
2023/03/30 03:47:50;;;;;;;5.78;5.25;;;;;;;;;;4244464;28;20050;-62
2023/03/30 03:50:11;;;;;;;5.78;3.60;;;;;;;;;;4249416;28;20084;-62
2023/03/30 03:52:31;;;;;;;9.18;4.80;;;;;;;;;;4242991;28;20358;-62
2023/03/30 03:54:51;;;;;;;9.98;4.82;;;;;;;;;;4245052;28;20042;-62
2023/03/30 03:57:11;;;;;;;6.53;3.45;;;;;;;;;;4241790;28;20242;-62
2023/03/30 03:59:32;;;;;;;4.85;3.58;;;;;;;;;;4242382;28;20313;-62
2023/03/30 04:01:52;;;;;;;6.00;3.38;;;;;;;;;;4242042;28;20046;-62
2023/03/30 04:04:13;;;;;;;4.93;4.03;;;;;;;;;;4242553;28;20084;-62
2023/03/30 04:06:33;;;;;;;3.22;3.03;;;;;;;;;;4242565;28;20250;-62
2023/03/30 04:08:53;;;;;;;5.05;3.35;;;;;;;;;;4242985;28;20084;-62
2023/03/30 04:11:14;;;;;;;6.05;4.32;;;;;;;;;;4244246;28;20087;-62
2023/03/30 04:13:35;;;;;;;4.90;3.80;;;;;;;;;;4252681;28;20053;-62
2023/03/30 04:15:55;;;;;;;5.72;3.15;;;;;;;;;;4247021;28;20145;-62
2023/03/30 04:18:15;;;;;;;7.22;3.80;;;;;;;;;;4243790;28;20041;-62
2023/03/30 04:20:36;;;;;;;4.55;4.20;;;;;;;;;;4250196;28;20049;-62
2023/03/30 04:22:56;;;;;;;6.85;4.90;;;;;;;;;;4251650;28;20110;-62
2023/03/30 04:25:16;;;;;;;5.60;4.38;;;;;;;;;;4245536;28;20267;-62
2023/03/30 04:27:37;;;;;;;10.50;4.60;;;;;;;;;;4251119;28;20050;-62
2023/03/30 04:29:57;;;;;;;5.22;4.65;;;;;;;;;;4249874;28;20042;-62
2023/03/30 04:32:20;;;;;;;7.18;3.65;;;;;;;;;;4247364;28;20069;-62
2023/03/30 04:34:48;;;;;;;5.43;4.20;;;;;;;;;;4246597;28;20101;-62
2023/03/30 04:37:09;;;;;;;10.60;4.35;;;;;;;;;;4252327;28;20140;-62
2023/03/30 04:39:29;;;;;;;8.38;4.57;;;;;;;;;;4240626;28;20223;-62
2023/03/30 04:41:53;;;;;;;4.80;3.60;;;;;;;;;;4248212;27;20235;-62
2023/03/30 04:44:13;;;;;;;5.00;4.38;;;;;;;;;;4246974;28;20050;-62
2023/03/30 04:46:33;;;;;;;7.05;5.10;;;;;;;;;;4230951;28;20047;-62
2023/03/30 04:48:53;;;;;;;10.55;5.03;;;;;;;;;;4246674;28;20054;-62
2023/03/30 04:51:13;;;;;;;4.70;4.13;;;;;;;;;;4244997;28;20274;-62
2023/03/30 04:53:33;;;;;;;7.13;3.97;;;;;;;;;;4248256;28;20038;-62
2023/03/30 04:55:53;;;;;;;4.72;4.38;;;;;;;;;;4246792;28;20043;-62
2023/03/30 04:58:13;;;;;;;6.72;4.13;;;;;;;;;;4251707;28;20095;-62
2023/03/30 05:00:34;;;;;;;9.75;4.72;;;;;;;;;;4247242;28;20046;-62
2023/03/30 05:02:54;;;;;;;5.45;4.18;;;;;;;;;;4239645;28;20369;-62
2023/03/30 05:05:14;;;;;;;6.82;4.57;;;;;;;;;;4247836;28;20047;-62
2023/03/30 05:07:35;;;;;;;4.45;4.22;;;;;;;;;;4250990;28;20060;-62
2023/03/30 05:09:55;;;;;;;7.40;4.57;;;;;;;;;;4244973;28;20076;-62
2023/03/30 05:12:15;;;;;;;5.45;4.97;;;;;;;;;;4240456;28;20047;-62
2023/03/30 05:14:35;;;;;;;12.13;5.68;;;;;;;;;;4247064;28;20080;-62
2023/03/30 05:16:57;;;;;;;7.38;6.53;;;;;;;;;;4247876;28;20088;-62
2023/03/30 05:19:17;;;;;;;5.25;4.45;;;;;;;;;;4247509;28;20039;-62
2023/03/30 05:21:38;;;;;;;5.68;5.22;;;;;;;;;;4246910;28;20115;-61
2023/03/30 05:23:58;;;;;;;10.88;8.10;;;;;;;;;;4245973;28;20324;-61
2023/03/30 05:26:18;;;;;;;8.30;6.40;;;;;;;;;;4248471;28;20057;-61
2023/03/30 05:28:39;;;;;;;11.25;6.75;;;;;;;;;;4247568;27;20058;-61
2023/03/30 05:30:59;;;;;;;5.82;5.50;;;;;;;;;;4248243;28;20046;-61
2023/03/30 05:33:19;;;;;;;4.70;4.22;;;;;;;;;;4252471;28;20104;-61
2023/03/30 05:35:40;;;;;;;4.93;3.67;;;;;;;;;;4250808;27;20078;-61
2023/03/30 05:38:00;;;;;;;4.15;3.88;;;;;;;;;;4244128;28;20081;-61
2023/03/30 05:40:20;;;;;;;6.60;3.90;;;;;;;;;;4246644;28;20070;-61
2023/03/30 05:42:41;;;;;;;4.22;4.00;;;;;;;;;;4246533;28;20042;-61
2023/03/30 05:45:01;;;;;;;6.45;4.50;;;;;;;;;;4244273;28;20104;-61
2023/03/30 05:47:23;;;;;;;6.40;3.55;;;;;;;;;;4246194;28;20073;-60
2023/03/30 05:49:44;;;;;;;6.55;5.82;;;;;;;;;;4245636;28;20043;-60
2023/03/30 05:52:04;;;;;;;4.88;4.57;;;;;;;;;;4244426;28;20065;-61
2023/03/30 05:54:26;;;;;;;5.97;5.68;;;;;;;;;;4243731;28;20076;-60
2023/03/30 05:56:46;;;;;;;5.50;5.13;;;;;;;;;;4250720;28;20373;-60
2023/03/30 05:59:06;;;;;;;6.55;4.57;;;;;;;;;;4241439;28;20054;-60
2023/03/30 06:01:26;;;;;;;6.22;4.50;;;;;;;;;;4243256;28;20298;-60
2023/03/30 06:03:47;;;;;;;4.20;3.97;;;;;;;;;;4244883;28;20038;-60
2023/03/30 06:06:08;;;;;;;6.80;4.82;;;;;;;;;;4239336;28;20088;-61
2023/03/30 06:08:28;;;;;;;7.25;4.90;;;;;;;;;;4249240;28;20096;-61
2023/03/30 06:10:55;;;;;;;5.35;4.75;;;;;;;;;;4246840;28;20047;-61
2023/03/30 06:13:15;;;;;;;5.80;4.38;;;;;;;;;;4244293;28;20072;-60
2023/03/30 06:15:35;;;;;;;5.60;5.07;;;;;;;;;;4243078;28;20085;-61
2023/03/30 06:17:57;;;;;;;6.15;5.60;;;;;;;;;;4245589;28;20092;-61
2023/03/30 06:20:20;;;;;;;5.53;4.80;;;;;;;;;;4241067;28;20374;-61
2023/03/30 06:22:40;;;;;;;5.70;5.13;;;;;;;;;;4243266;28;20046;-61
2023/03/30 06:25:00;;;;;;;6.78;6.13;;;;;;;;;;4241040;28;20047;-60
2023/03/30 06:27:20;;;;;;;7.63;4.82;;;;;;;;;;4247818;28;20050;-61
2023/03/30 06:29:41;;;;;;;6.38;5.35;;;;;;;;;;4247500;28;20404;-61
2023/03/30 06:32:02;;;;;;;5.93;3.55;;;;;;;;;;4248479;28;20046;-60
2023/03/30 06:34:22;;;;;;;4.68;4.35;;;;;;;;;;4244744;28;20136;-61
2023/03/30 06:36:42;;;;;;;5.05;4.55;;;;;;;;;;4248322;27;20043;-60
2023/03/30 06:39:05;;;;;;;3.78;3.50;;;;;;;;;;4247950;28;20088;-60
2023/03/30 06:41:27;;;;;;;6.78;4.07;;;;;;;;;;4246918;28;20091;-61
2023/03/30 06:43:47;;;;;;;5.10;4.90;;;;;;;;;;4247661;28;20042;-61
2023/03/30 06:46:07;;;;;;;5.85;5.55;;;;;;;;;;4246030;28;20045;-60
2023/03/30 06:48:28;;;;;;;5.72;5.25;;;;;;;;;;4245092;28;20236;-61
2023/03/30 06:50:48;;;;;;;11.13;5.18;;;;;;;;;;4244165;28;20299;-60
2023/03/30 06:53:08;;;;;;;4.63;3.88;;;;;;;;;;4246997;28;20043;-61
2023/03/30 06:55:28;;;;;;;5.00;4.53;;;;;;;;;;4247518;28;20062;-61
2023/03/30 06:57:48;;;;;;;6.40;4.90;;;;;;;;;;4247458;28;20042;-61
2023/03/30 07:00:12;;;;;;;5.28;4.63;;;;;;;;;;4226515;28;20047;-60
2023/03/30 07:02:33;;;;;;;5.70;3.50;;;;;;;;;;4245795;28;20065;-61
2023/03/30 07:04:53;;;;;;;4.43;4.13;;;;;;;;;;4248620;27;20039;-60
2023/03/30 07:07:13;;;;;;;5.35;4.93;;;;;;;;;;4250329;28;20106;-60
2023/03/30 07:09:34;;;;;;;5.20;4.50;;;;;;;;;;4253603;28;20054;-60
2023/03/30 07:11:55;;;;;;;4.78;4.40;;;;;;;;;;4251768;27;20046;-61
2023/03/30 07:14:16;;;;;;;5.40;4.88;;;;;;;;;;4250791;28;20399;-61
2023/03/30 07:16:37;;;;;;;7.53;5.22;;;;;;;;;;4249793;28;20050;-61
2023/03/30 07:18:57;;;;;;;7.00;5.30;;;;;;;;;;4234265;28;20039;-60
2023/03/30 07:21:18;;;;;;;5.78;5.20;;;;;;;;;;4246738;28;20054;-61
2023/03/30 07:23:38;;;;;;;10.18;6.72;;;;;;;;;;4248089;28;20117;-61
2023/03/30 07:25:58;;;;;;;7.85;5.75;;;;;;;;;;4249997;28;20046;-60
2023/03/30 07:28:18;;;;;;;5.32;3.25;;;;;;;;;;4246773;28;20065;-60
2023/03/30 07:30:38;;;;;;;4.90;4.60;;;;;;;;;;4251202;28;20089;-60
2023/03/30 07:32:58;;;;;;;8.38;4.95;;;;;;;;;;4247061;28;20050;-60
2023/03/30 07:35:19;;;;;;;7.05;5.82;;;;;;;;;;4248110;28;20066;-60
2023/03/30 07:37:39;;;;;;;5.68;5.15;;;;;;;;;;4248051;28;20050;-60
2023/03/30 07:39:59;;;;;;;4.15;3.78;;;;;;;;;;4250376;28;20108;-60
2023/03/30 07:42:20;;;;;;;11.52;3.45;;;;;;;;;;4246799;28;20046;-59
2023/03/30 07:44:40;;;;;;;3.55;3.25;;;;;;;;;;4247795;28;20046;-60
2023/03/30 07:47:03;;;;;;;8.60;3.60;;;;;;;;;;4248944;28;20054;-60
2023/03/30 07:49:23;;;;;;;8.25;3.75;;;;;;;;;;4248680;28;20042;-61
2023/03/30 07:51:43;;;;;;;4.38;3.20;;;;;;;;;;4243930;28;20227;-61
2023/03/30 07:54:03;;;;;;;6.93;3.95;;;;;;;;;;4250998;28;20165;-60
2023/03/30 07:56:23;;;;;;;4.75;4.38;;;;;;;;;;4231987;28;20393;-61
2023/03/30 07:58:43;;;;;;;5.55;2.97;;;;;;;;;;4245326;28;20043;-60
2023/03/30 08:01:03;;;;;;;12.73;4.82;;;;;;;;;;4242529;28;20366;-60
2023/03/30 08:03:24;;;;;;;8.32;3.50;;;;;;;;;;4244123;28;20336;-60
2023/03/30 08:05:51;;;;;;;4.95;4.47;;;;;;;;;;4243607;28;20108;-60
2023/03/30 08:08:12;;;;;;;4.82;3.83;;;;;;;;;;4243241;28;20407;-60
2023/03/30 08:10:33;;;;;;;4.25;3.50;;;;;;;;;;4242657;28;20404;-61
2023/03/30 08:12:53;;;;;;;16.52;4.15;;;;;;;;;;4241821;28;20046;-60
2023/03/30 08:15:13;;;;;;;4.18;3.83;;;;;;;;;;4241295;28;20042;-61
2023/03/30 08:17:33;;;;;;;8.35;5.82;;;;;;;;;;4249407;28;20089;-60
2023/03/30 08:19:55;;;;;;;4.25;4.05;;;;;;;;;;4244523;28;20057;-60
2023/03/30 08:22:15;;;;;;;3.35;3.25;;;;;;;;;;4242857;28;20386;-60
2023/03/30 08:24:36;;;;;;;2.97;2.70;;;;;;;;;;4254677;28;20050;-60
2023/03/30 08:26:56;;;;;;;6.15;3.22;;;;;;;;;;4246938;28;20059;-60
2023/03/30 08:29:17;;;;;;;3.38;3.08;;;;;;;;;;4245231;28;20039;-60
2023/03/30 08:31:37;;;;;;;9.32;2.95;;;;;;;;;;4244874;28;20057;-61
2023/03/30 08:34:03;;;;;;;3.67;3.40;;;;;;;;;;4250169;28;20231;-61
2023/03/30 08:36:23;;;;;;;5.18;3.60;;;;;;;;;;4248258;28;20234;-60
2023/03/30 08:38:44;;;;;;;4.22;3.58;;;;;;;;;;4245106;28;20242;-60
2023/03/30 08:41:19;;;;;;;8.05;3.55;;;;;;;;;;4251476;28;20122;-60
2023/03/30 08:43:57;;;;;;;6.32;3.03;;;;;;;;;;4245410;28;20226;-60
2023/03/30 08:46:18;;;;;;;3.05;2.30;;;;;;;;;;4249594;28;20039;-60
2023/03/30 08:48:41;;;;;;;5.10;2.97;;;;;;;;;;4243078;28;20250;-60
2023/03/30 08:51:05;;;;;;;6.28;2.80;;;;;;;;;;4244859;28;20041;-60
2023/03/30 08:53:28;;;;;;;4.45;3.10;;;;;;;;;;4247436;28;20092;-60
2023/03/30 08:56:14;;;;;;;3.78;3.55;;;;;;;;;;4248485;28;20050;-60
2023/03/30 08:58:55;;;;;;;4.38;3.72;;;;;;;;;;4251428;28;20041;-60
2023/03/30 09:01:18;;;;;;;5.68;3.33;;;;;;;;;;4252040;28;20403;-60
2023/03/30 09:03:45;;;;;;;4.85;4.50;;;;;;;;;;4245643;28;20072;-61
2023/03/30 09:06:08;;;;;;;3.33;3.08;;;;;;;;;;4249808;28;20054;-60
2023/03/30 09:08:30;;;;;;;4.88;4.43;;;;;;;;;;4245204;28;20084;-60
2023/03/30 09:11:01;;;;;;;4.03;3.72;;;;;;;;;;4244579;28;20080;-60
2023/03/30 09:13:24;;;;;;;3.83;3.50;;;;;;;;;;4247181;28;20046;-60
2023/03/30 09:15:48;;;;;;;5.63;4.10;;;;;;;;;;4247569;28;20045;-60
2023/03/30 09:18:24;;;;;;;4.38;2.60;;;;;;;;;;4247866;28;20227;-60
2023/03/30 09:20:46;;;;;;;7.30;3.70;;;;;;;;;;4244502;28;20042;-59
2023/03/30 09:23:14;;;;;;;6.13;2.63;;;;;;;;;;4249120;28;20127;-60
2023/03/30 09:25:54;;;;;;;6.10;4.65;;;;;;;;;;4247396;28;20050;-60
2023/03/30 09:28:14;;;;;;;4.28;3.47;;;;;;;;;;4212623;28;20054;-60
2023/03/30 09:30:41;;;;;;;3.78;3.53;;;;;;;;;;4240058;28;20046;-60
2023/03/30 09:33:06;;;;;;;2.45;2.35;;;;;;;;;;4247876;28;20054;-59
2023/03/30 09:35:30;;;;;;;2.95;2.72;;;;;;;;;;4246726;28;20054;-60
2023/03/30 09:37:51;;;;;;;2.90;2.80;;;;;;;;;;4241965;28;20107;-60
2023/03/30 09:40:21;;;;;;;2.35;2.15;;;;;;;;;;4251396;28;20042;-60
2023/03/30 09:42:52;;;;;;;3.10;2.10;;;;;;;;;;4250603;28;20046;-59
2023/03/30 09:45:26;;;;;;;2.78;2.53;;;;;;;;;;4250278;28;20079;-60
2023/03/30 09:47:46;;;;;;;2.75;2.65;;;;;;;;;;4251066;28;20046;-60
2023/03/30 09:50:08;;;;;;;3.88;2.35;;;;;;;;;;4249854;28;20070;-60
2023/03/30 09:52:29;;;;;;;3.47;3.30;;;;;;;;;;4246438;28;20042;-60
2023/03/30 09:54:49;;;;;;;3.10;2.90;;;;;;;;;;4246263;28;20047;-60
2023/03/30 09:57:31;;;;;;;3.60;3.35;;;;;;;;;;4246777;28;20436;-60
2023/03/30 09:59:54;;;;;;;2.37;2.27;;;;;;;;;;4244737;28;20080;-60
2023/03/30 10:02:15;;;;;;;2.47;2.10;;;;;;;;;;4241917;28;20084;-60
2023/03/30 10:04:55;;;;;;;2.85;2.65;;;;;;;;;;4245594;28;20234;-59
2023/03/30 10:07:21;;;;;;;4.07;2.47;;;;;;;;;;4243256;28;20365;-60
2023/03/30 10:09:44;;;;;;;3.67;3.38;;;;;;;;;;4245549;28;20223;-60
2023/03/30 10:12:05;;;;;;;4.13;3.83;;;;;;;;;;4242766;28;20054;-60
2023/03/30 10:14:30;;;;;;;2.33;2.22;;;;;;;;;;4246675;28;20120;-60
2023/03/30 10:16:50;;;;;;;2.78;2.03;;;;;;;;;;4241814;28;20096;-60
2023/03/30 10:19:16;;;;;;;1.70;1.60;;;;;;;;;;4245531;28;20235;-60
2023/03/30 10:21:38;;;;;;;4.70;2.88;;;;;;;;;;4243519;28;20370;-60
2023/03/30 10:24:25;;;;;;;2.90;2.38;;;;;;;;;;4247498;28;20042;-60
2023/03/30 10:26:45;;;;;;;2.67;2.15;;;;;;;;;;4240616;28;20086;-60
2023/03/30 10:29:09;;;;;;;2.85;2.33;;;;;;;;;;4244245;28;20050;-60
2023/03/30 10:31:30;;;;;;;2.08;1.98;;;;;;;;;;4243448;28;20046;-60
2023/03/30 10:33:54;;;;;;;2.47;2.25;;;;;;;;;;4247839;28;20069;-60
2023/03/30 10:36:16;;;;;;;2.40;2.25;;;;;;;;;;4243249;28;20053;-60
2023/03/30 10:38:37;;;;;;;1.77;1.67;;;;;;;;;;4246873;27;20046;-60
2023/03/30 10:41:01;;;;;;;4.20;1.85;;;;;;;;;;4252609;28;20382;-60
2023/03/30 10:43:24;;;;;;;2.50;2.10;;;;;;;;;;4247421;28;20043;-60
2023/03/30 10:45:55;;;;;;;2.88;1.75;;;;;;;;;;4250875;28;20042;-60
2023/03/30 10:48:27;;;;;;;2.42;1.77;;;;;;;;;;4248257;28;20050;-60
2023/03/30 10:51:14;;;;;;;1.70;1.60;;;;;;;;;;4246539;28;20050;-60
2023/03/30 10:53:34;;;;;;;1.98;1.80;;;;;;;;;;4251726;28;20055;-60
2023/03/30 10:55:54;;;;;;;2.70;1.65;;;;;;;;;;4252472;28;20283;-60
2023/03/30 10:58:27;;;;;;;5.72;2.22;;;;;;;;;;4248123;28;20414;-60
2023/03/30 11:00:54;;;;;;;2.08;1.30;;;;;;;;;;4245392;28;20050;-60
2023/03/30 11:03:20;;;;;;;2.38;1.40;;;;;;;;;;4249617;28;20045;-60
2023/03/30 11:05:42;;;;;;;2.60;1.65;;;;;;;;;;4254350;28;20091;-59
2023/03/30 11:08:07;;;;;;;2.83;1.50;;;;;;;;;;4251884;28;20054;-59
2023/03/30 11:10:30;;;;;;;4.78;1.90;;;;;;;;;;4253994;28;20050;-60
2023/03/30 11:12:54;;;;;;;7.50;1.98;;;;;;;;;;4235639;28;20401;-60
2023/03/30 11:15:18;;;;;;;1.85;1.85;;;;;;;;;;4246136;28;20116;-60
2023/03/30 11:17:42;;;;;;;1.77;1.30;;;;;;;;;;4248713;28;20136;-60
2023/03/30 11:20:22;;;;;;;2.53;1.50;;;;;;;;;;4252058;28;20070;-59
2023/03/30 11:22:45;;;;;;;4.10;1.83;;;;;;;;;;4243874;28;20043;-60
2023/03/30 11:25:26;;;;;;;1.42;1.30;;;;;;;;;;4248823;28;20042;-60
2023/03/30 11:27:53;;;;;;;4.53;1.75;;;;;;;;;;4248661;28;20112;-59
2023/03/30 11:30:26;;;;;;;2.22;1.52;;;;;;;;;;4247294;28;20084;-60
2023/03/30 11:32:47;;;;;;;2.53;1.70;;;;;;;;;;4244671;28;20034;-60
2023/03/30 11:35:18;;;;;;;3.60;2.00;;;;;;;;;;4248833;28;20095;-60
2023/03/30 11:37:59;;;;;;;3.60;1.60;;;;;;;;;;4245951;28;20070;-60
2023/03/30 11:40:26;;;;;;;1.70;1.60;;;;;;;;;;4243147;28;20063;-60
2023/03/30 11:42:47;;;;;;;2.42;2.05;;;;;;;;;;4252448;28;20054;-60
2023/03/30 11:45:26;;;;;;;1.80;1.70;;;;;;;;;;4248197;28;20050;-60
2023/03/30 11:47:56;;;;;;;4.30;2.40;;;;;;;;;;4248154;28;20381;-60
2023/03/30 11:50:39;;;;;;;2.05;1.75;;;;;;;;;;4251542;27;20042;-60
2023/03/30 11:53:18;;;;;;;2.20;1.70;;;;;;;;;;4243496;28;20046;-59
2023/03/30 11:55:41;;;;;;;9.98;1.75;;;;;;;;;;4247161;28;20092;-59
2023/03/30 11:58:07;;;;;;;1.63;1.33;;;;;;;;;;4249059;28;20415;-60
2023/03/30 12:00:31;;;;;;;2.20;1.42;;;;;;;;;;4245811;28;20033;-59
2023/03/30 12:02:54;;;;;;;3.85;1.40;;;;;;;;;;4243784;28;20061;-59
2023/03/30 12:05:38;;;;;;;1.50;1.20;;;;;;;;;;4244279;28;20042;-60
2023/03/30 12:08:07;;;;;;;1.15;1.10;;;;;;;;;;4247161;28;20255;-59
2023/03/30 12:10:27;;;;;;;6.40;1.30;;;;;;;;;;4247047;28;20046;-60
2023/03/30 12:12:52;;;;;;;1.10;1.10;;;;;;;;;;4244460;28;20111;-59
2023/03/30 12:15:31;;;;;;;1.88;1.40;;;;;;;;;;4245390;28;20436;-60
2023/03/30 12:17:53;;;;;;;1.80;1.33;;;;;;;;;;4244544;28;20042;-60
2023/03/30 12:20:20;;;;;;;2.00;1.83;;;;;;;;;;4242996;28;20046;-60
2023/03/30 12:22:40;;;;;;;2.60;1.92;;;;;;;;;;4243109;28;20084;-60
2023/03/30 12:25:02;;;;;;;1.80;1.70;;;;;;;;;;4244167;28;20088;-60
2023/03/30 12:27:26;;;;;;;4.88;1.15;;;;;;;;;;4242258;28;20416;-60
2023/03/30 12:29:47;;;;;;;2.25;1.02;;;;;;;;;;4254104;28;20369;-60
2023/03/30 12:32:27;;;;;;;2.05;1.17;;;;;;;;;;4249664;28;20083;-59
2023/03/30 12:34:48;;;;;;;1.13;1.13;;;;;;;;;;4254924;28;20050;-60
2023/03/30 12:37:21;;;;;;;1.60;1.50;;;;;;;;;;4246045;27;20370;-60
2023/03/30 12:39:43;;;;;;;1.40;1.30;;;;;;;;;;4249282;28;20046;-60
2023/03/30 12:42:04;;;;;;;2.15;1.45;;;;;;;;;;4244729;28;20088;-60
2023/03/30 12:44:24;;;;;;;1.45;1.20;;;;;;;;;;4248017;28;20050;-59
2023/03/30 12:46:57;;;;;;;2.45;1.10;;;;;;;;;;4248121;28;20050;-59
2023/03/30 12:49:40;;;;;;;1.17;1.10;;;;;;;;;;4251900;28;20089;-59
2023/03/30 12:52:12;;;;;;;2.45;1.83;;;;;;;;;;4247801;28;20107;-60
2023/03/30 12:54:46;;;;;;;1.85;1.10;;;;;;;;;;4251856;28;20084;-59
2023/03/30 12:57:09;;;;;;;3.70;1.90;;;;;;;;;;4249343;28;20080;-59
2023/03/30 12:59:49;;;;;;;1.73;1.17;;;;;;;;;;4252230;28;20111;-59
2023/03/30 13:02:28;;;;;;;1.67;1.58;;;;;;;;;;4245352;28;20365;-60
2023/03/30 13:04:49;;;;;;;1.30;1.20;;;;;;;;;;4245469;28;20107;-59
2023/03/30 13:07:15;;;;;;;1.20;1.10;;;;;;;;;;4248797;28;20050;-60
2023/03/30 13:09:55;;;;;;;1.75;1.65;;;;;;;;;;4250776;28;20042;-59
2023/03/30 13:12:30;;;;;;;3.15;2.85;;;;;;;;;;4244497;28;20043;-60
2023/03/30 13:14:58;;;;;;;1.80;1.20;;;;;;;;;;4246372;28;20051;-60
2023/03/30 13:17:19;;;;;;;1.83;1.73;;;;;;;;;;4249203;28;20288;-60
2023/03/30 13:19:47;;;;;;;2.78;1.40;;;;;;;;;;4246312;28;20119;-60
2023/03/30 13:22:11;;;;;;;4.60;1.80;;;;;;;;;;4247704;28;20039;-59
2023/03/30 13:24:31;;;;;;;3.70;1.50;;;;;;;;;;4245119;28;20086;-60
2023/03/30 13:26:52;;;;;;;1.15;1.00;;;;;;;;;;4247759;28;20092;-59
2023/03/30 13:29:15;;;;;;;2.85;1.40;;;;;;;;;;4249338;28;20103;-60
2023/03/30 13:31:54;;;;;;;2.95;1.55;;;;;;;;;;4247138;28;20065;-60
2023/03/30 13:34:21;;;;;;;1.63;1.52;;;;;;;;;;4250977;28;20069;-59
2023/03/30 13:36:51;;;;;;;3.40;1.58;;;;;;;;;;4247815;28;20054;-59
2023/03/30 13:39:17;;;;;;;1.45;1.40;;;;;;;;;;4248351;28;20309;-60
2023/03/30 13:41:37;;;;;;;2.45;1.58;;;;;;;;;;4242449;28;20073;-60
2023/03/30 13:43:57;;;;;;;3.10;1.75;;;;;;;;;;4243970;28;20049;-60
2023/03/30 13:46:22;;;;;;;1.40;1.30;;;;;;;;;;4248908;28;20092;-59
2023/03/30 13:48:52;;;;;;;1.95;1.85;;;;;;;;;;4245862;28;20077;-60
2023/03/30 13:51:15;;;;;;;2.53;1.40;;;;;;;;;;4239012;28;20039;-59
2023/03/30 13:53:41;;;;;;;1.60;1.50;;;;;;;;;;4252578;28;20064;-60
2023/03/30 13:56:05;;;;;;;1.98;1.38;;;;;;;;;;4250490;28;20146;-60
2023/03/30 13:58:32;;;;;;;4.15;1.20;;;;;;;;;;4245169;28;20098;-59
2023/03/30 14:00:53;;;;;;;1.83;1.48;;;;;;;;;;4244808;28;20081;-60
2023/03/30 14:03:26;;;;;;;1.35;1.23;;;;;;;;;;4245984;28;20373;-60
2023/03/30 14:05:46;;;;;;;5.30;1.75;;;;;;;;;;4245938;28;20214;-60
2023/03/30 14:08:09;;;;;;;1.40;1.30;;;;;;;;;;4245637;28;20050;-59
2023/03/30 14:10:29;;;;;;;1.70;1.40;;;;;;;;;;4244691;28;20059;-59
2023/03/30 14:12:54;;;;;;;1.85;1.75;;;;;;;;;;4245098;28;20050;-60
2023/03/30 14:15:21;;;;;;;4.57;1.67;;;;;;;;;;4245607;28;20072;-59
2023/03/30 14:17:41;;;;;;;1.30;1.20;;;;;;;;;;4247214;28;20104;-60
2023/03/30 14:20:08;;;;;;;1.20;1.20;;;;;;;;;;4242820;28;20105;-59
2023/03/30 14:22:29;;;;;;;2.17;1.70;;;;;;;;;;4248154;28;20362;-59
2023/03/30 14:24:56;;;;;;;5.95;1.73;;;;;;;;;;4246451;28;20046;-60